Billings, MT

9:29 AM MDT on September 16, 2014 (GMT -0600)
Downtown Billings | Change Station
CLOSE
Current Station
Personal Weather Station
Location: Billings, MT
Elevation: 3127 ft
Nearby Weather Stations

Elev 3127 ft 45.78 °N, 108.50 °W | Updated 31 minutes ago

Mostly Cloudy
Mostly Cloudy
49.4 °F
Feels Like 47 °F
N
6.3
Wind Variable Wind from South
Gusts 8.9 mph

Today
High -- | Low -- °F
--% Chance of Precip.
Yesterday
High -- | Low -- °F
Precip. -- in
6:53 AM 7:23 PM
Last Quarter, 45% visible
Pressure 29.99 in
Visibility 10.0 miles
Clouds Few 9500 ft
Mostly Cloudy 24000 ft
Windchill 47 °F
Dew Point 43 °F
Humidity 77%
Rainfall -999.00 in
Snow Depth Not available.
UV 1 out of 12
Pollen 6.30 out of 12
Air Quality Not available.
Flu Activity Not available.
METAR KBIL 161453Z 23016KT 10SM FEW095 BKN240 12/04 A3004 RMK AO2 SLP156 T01170044 53000

More Conditions Fewer Conditions

Pressure 29.99 in
Visibility 10.0 miles
Clouds Few 9500 ft
Mostly Cloudy 24000 ft
Windchill 47 °F
Dew Point 43 °F
Humidity 77%
Rainfall -999.00 in
Snow Depth Not available.
UV 1 out of 12
Pollen 6.30 out of 12
Air Quality Not available.
Flu Activity Not available.
METAR KBIL 161453Z 23016KT 10SM FEW095 BKN240 12/04 A3004 RMK AO2 SLP156 T01170044 53000

More Conditions Fewer Conditions

10-Day Weather Forecast

Almanac

Astronomy

Sep. 16, 2014 Rise Set
Actual Time 6:53 AM MDT 7:23 PM MDT
Civil Twilight 6:23 AM MDT 7:52 PM MDT
Nautical Twilight 5:48 AM MDT 8:28 PM MDT
Astronomical Twilight 5:11 AM MDT 9:04 PM MDT
Moon No Moon Rise 3:02 PM MDT
Length of Visible Light 13h 29m
Length of Day
12h 29m
Tomorrow will be 3m 11s shorter.
Last Quarter, 45% of the Moon is Illuminated
Today
Last Quarter
Sep 24
New
Oct 1
First Quarter
Oct 8
Full
Oct 15
Last Quarter

Today's Extremes

State Highs State Lows

Community

WunderPhotos

Upload Photos

1,753,807 photos uploaded!

Nearby

Snow Depth

Station Depth Elevation
Cole Creek 1 in 7850 ft
Burnt Mountain 0 in 5880 ft
Crystal Lake 1 in 6050 ft
Fisher Creek 1 in 9100 ft
Northeast Entrance 0 in 7350 ft

Earthquake Activity

City Distance Mag. Time & Date
No recent earthquake activity has been reported nearby.
Minimum magnitude displayed is 2.5.

Coastal Water Temperatures

Place Temperature
No Stations Reporting

Nearby Weather Stations